首页
METAR-TAF:

METAR-TAF

机场 :

Windom Municipal Airport

Windom, 明尼蘇達州, 美国

纬度: 43-54-48N, 经度: 095-06-34W, 海拔: 430米

当前天气观测

该预报发布于24分钟前的10:36 UTC
风速7节,风向西北
温度 15°C
湿度 94%
气压 1011 hPa
能見度: 6.4公里
散云层高于400英尺
散云层高于1400英尺
多云层高于7500英尺
小毛毛雨

METAR: KMWM 261036Z AUTO 32007KT 4SM -DZ SCT004 SCT014 BKN075 15/14 A2985 RMK AO2

时间: 06:00 (11:00 UTC)


TAF: 丢失

超过4000个机场的气象观测和天气预报(METAR&TAF报告)。

可查询的气象台以黄色和红色小点在地图上表示。

将鼠标移到小点上方,可查看气象台名称。

然后点击查看天气观测和预报。

如需切换地图:点击带黑十字的绿色按钮放大地图;点击带横线的绿色按钮缩小地图;或者点击绿色箭头查看邻近地区的地图。


METAR-TAF: